CYZS

Coral Harbour Airport

Coral Harbour, Canada
TAF CYZS 231838Z 2319/2407 VRB03KT P6SM FEW210 BECMG 2323/2401 34010KT RMK NXT FCST BY 240100Z
Issued Valid From Valid To
Apr-23 @ 18:38 UTC
(4 hours ago)
Apr-23 @ 19:00 UTC
(4 hours ago)
Apr-24 @ 07:00 UTC
(in 8 hours)
Apr-23 @ 19:00 to Apr-23 @ 23:00
TAF CYZS 231838Z 2319/2407 VRB03KT P6SM FEW210
Wind Visibility Clouds
Variable at 3 knots Greater than 6 miles
  • Few at 21,000' AGL
Becoming Apr-23 @ 23:00 to Apr-24 @ 07:00
BECMG 2323/2401 34010KT RMK NXT FCST BY 240100Z
Wind Visibility Clouds
340° at 10 knots Greater than 6 miles
  • Few at 21,000' AGL
TAF CYZS 231838Z 2319/2407 VRB03KT P6SM FEW210 BECMG 2323/2401 34010KT RMK NXT FCST BY 240100Z
Issued Apr-23 @ 18:38 UTC
(4 hours ago)
Valid From Apr-23 @ 19:00 UTC
(4 hours ago)
Valid To Apr-24 @ 07:00 UTC
(in 8 hours)
Apr-23 @ 19:00 - Apr-23 @ 23:00
Wind Visibility
Variable at 3 knots Greater than 6 miles
Clouds
  • Few at 21,000' AGL
Becoming Apr-23 @ 23:00 - Apr-24 @ 07:00
Wind Visibility
340° at 10 knots Greater than 6 miles
Clouds
  • Few at 21,000' AGL